PABR METAR and TAF weather

Enter ICAO airport designator
Station Type Date Time Source
PABR METAR 2019/02/22 23:53 UTC NOAA

PABR 222353Z 11016KT 5SM BLSN BR CLR M25/M28 A3009 RMK SLP192 T12501278 11250 21272 58019 VIA AUTODIAL


Station Type Date Time Source
PABR Decoded METAR 2019/02/22 23:53 UTC NOAA

POST ROGERS MEMORIAL AIRPORT, AK, United States (PABR) 71-17N 156-46W 10M
Feb 22, 2019 - 06:53 PM EST / 2019.02.22 2353 UTC
Wind: from the ESE (110 degrees) at 18 MPH (16 KT):0
Visibility: 5 mile(s):0
Sky conditions: clear
Weather: blowing snow; mist
Temperature: -13.0 F (-25.0 C)
Windchill: -38 F (-39 C):2
Dew Point: -18.0 F (-27.8 C)
Relative Humidity: 77%
Pressure (altimeter): 30.09 in. Hg (1018 hPa)
Pressure tendency: 0.06 inches (1.9 hPa) lower than three hours ago
ob: PABR 222353Z 11016KT 5SM BLSN BR CLR M25/M28 A3009 RMK SLP192 T12501278 11250 21272 58019 VIA AUTODIAL
cycle: 0

Station Type Date Time Source
PABR TAF 2019/02/22 21:46 UTC NOAA

TAF
AMD PABR 222044Z 2221/2318 11013KT P6SM SCT004
TEMPO 2221/2224 5SM BR SCT004
FM230300 12013KT 4SM BR BKN003
FM231000 15021KT 1 1/2SM -SN BLSN OVC003


Example: see airport list